sensor_id;sensor_type;location;lat;lon;timestamp;temperature;humidity
59999;DHT22;45859;51.378;6.736;2023-04-01T00:02:18;9.10;99.90
59999;DHT22;45859;51.378;6.736;2023-04-01T00:04:44;9.80;99.90
59999;DHT22;45859;51.378;6.736;2023-04-01T00:07:10;9.40;99.90
59999;DHT22;45859;51.378;6.736;2023-04-01T00:09:36;9.90;99.90
59999;DHT22;45859;51.378;6.736;2023-04-01T00:12:02;10.50;99.90
59999;DHT22;45859;51.378;6.736;2023-04-01T00:14:27;9.80;99.90
59999;DHT22;45859;51.378;6.736;2023-04-01T00:16:54;9.80;99.90
59999;DHT22;45859;51.378;6.736;2023-04-01T00:19:19;9.80;99.90
59999;DHT22;45859;51.378;6.736;2023-04-01T00:21:45;9.90;99.90
59999;DHT22;45859;51.378;6.736;2023-04-01T00:24:12;10.30;99.90
59999;DHT22;45859;51.378;6.736;2023-04-01T00:26:37;9.70;99.90
59999;DHT22;45859;51.378;6.736;2023-04-01T00:29:03;9.80;99.90
59999;DHT22;45859;51.378;6.736;2023-04-01T00:31:28;9.80;99.90
59999;DHT22;45859;51.378;6.736;2023-04-01T00:33:55;9.70;99.90
59999;DHT22;45859;51.378;6.736;2023-04-01T00:36:22;9.10;99.90
59999;DHT22;45859;51.378;6.736;2023-04-01T00:38:49;10.10;99.90
59999;DHT22;45859;51.378;6.736;2023-04-01T00:41:16;9.60;99.90
59999;DHT22;45859;51.378;6.736;2023-04-01T00:43:48;9.60;99.90
59999;DHT22;45859;51.378;6.736;2023-04-01T00:46:13;9.60;99.90
59999;DHT22;45859;51.378;6.736;2023-04-01T00:48:48;9.60;99.90
59999;DHT22;45859;51.378;6.736;2023-04-01T00:51:18;9.70;99.90
59999;DHT22;45859;51.378;6.736;2023-04-01T00:53:49;10.50;99.90
59999;DHT22;45859;51.378;6.736;2023-04-01T00:56:22;9.70;99.90
59999;DHT22;45859;51.378;6.736;2023-04-01T00:58:56;9.50;99.90
59999;DHT22;45859;51.378;6.736;2023-04-01T01:01:24;10.00;99.90
59999;DHT22;45859;51.378;6.736;2023-04-01T01:03:50;9.50;99.90
59999;DHT22;45859;51.378;6.736;2023-04-01T01:06:53;9.10;99.90
59999;DHT22;45859;51.378;6.736;2023-04-01T01:09:59;9.60;99.90
59999;DHT22;45859;51.378;6.736;2023-04-01T01:12:38;9.60;99.90
59999;DHT22;45859;51.378;6.736;2023-04-01T01:15:25;9.60;99.90
59999;DHT22;45859;51.378;6.736;2023-04-01T01:21:12;9.80;99.90
59999;DHT22;45859;51.378;6.736;2023-04-01T01:37:15;9.10;99.90
59999;DHT22;45859;51.378;6.736;2023-04-01T01:39:43;9.60;99.90
59999;DHT22;45859;51.378;6.736;2023-04-01T01:42:13;9.60;99.90
59999;DHT22;45859;51.378;6.736;2023-04-01T01:44:41;9.70;99.90
59999;DHT22;45859;51.378;6.736;2023-04-01T01:47:08;9.70;99.90
59999;DHT22;45859;51.378;6.736;2023-04-01T01:49:35;9.30;99.90
59999;DHT22;45859;51.378;6.736;2023-04-01T01:52:01;10.10;99.90
59999;DHT22;45859;51.378;6.736;2023-04-01T01:54:27;9.70;99.90
59999;DHT22;45859;51.378;6.736;2023-04-01T01:57:05;9.30;99.90
59999;DHT22;45859;51.378;6.736;2023-04-01T01:59:33;9.80;99.90
59999;DHT22;45859;51.378;6.736;2023-04-01T02:02:00;10.60;99.90
59999;DHT22;45859;51.378;6.736;2023-04-01T02:04:40;10.40;99.90
59999;DHT22;45859;51.378;6.736;2023-04-01T02:07:11;9.70;99.90
59999;DHT22;45859;51.378;6.736;2023-04-01T02:09:38;9.70;99.90
59999;DHT22;45859;51.378;6.736;2023-04-01T02:12:07;9.70;99.90
59999;DHT22;45859;51.378;6.736;2023-04-01T02:17:10;9.80;99.90
59999;DHT22;45859;51.378;6.736;2023-04-01T02:20:02;8.70;99.90
59999;DHT22;45859;51.378;6.736;2023-04-01T02:22:33;9.60;99.90
59999;DHT22;45859;51.378;6.736;2023-04-01T02:25:06;9.70;99.90
59999;DHT22;45859;51.378;6.736;2023-04-01T02:27:32;9.60;99.90
59999;DHT22;45859;51.378;6.736;2023-04-01T02:29:58;10.00;99.90
59999;DHT22;45859;51.378;6.736;2023-04-01T02:32:25;9.90;99.90
59999;DHT22;45859;51.378;6.736;2023-04-01T02:34:52;9.60;99.90
59999;DHT22;45859;51.378;6.736;2023-04-01T02:37:18;10.00;99.90
59999;DHT22;45859;51.378;6.736;2023-04-01T02:39:44;9.80;99.90
59999;DHT22;45859;51.378;6.736;2023-04-01T02:42:10;9.50;99.90
59999;DHT22;45859;51.378;6.736;2023-04-01T02:44:36;9.50;99.90
59999;DHT22;45859;51.378;6.736;2023-04-01T02:47:02;9.40;99.90
59999;DHT22;45859;51.378;6.736;2023-04-01T02:49:28;9.60;99.90
59999;DHT22;45859;51.378;6.736;2023-04-01T02:51:53;9.50;99.90
59999;DHT22;45859;51.378;6.736;2023-04-01T02:54:19;9.30;99.90
59999;DHT22;45859;51.378;6.736;2023-04-01T02:56:45;9.50;99.90
59999;DHT22;45859;51.378;6.736;2023-04-01T02:59:11;9.60;99.90
59999;DHT22;45859;51.378;6.736;2023-04-01T03:01:36;9.70;99.90
59999;DHT22;45859;51.378;6.736;2023-04-01T03:04:02;8.10;99.90
59999;DHT22;45859;51.378;6.736;2023-04-01T03:06:28;9.50;99.90
59999;DHT22;45859;51.378;6.736;2023-04-01T03:08:54;9.10;99.90
59999;DHT22;45859;51.378;6.736;2023-04-01T03:11:19;9.30;99.90
59999;DHT22;45859;51.378;6.736;2023-04-01T03:13:46;10.30;99.90
59999;DHT22;45859;51.378;6.736;2023-04-01T03:16:12;9.50;99.90
59999;DHT22;45859;51.378;6.736;2023-04-01T03:18:37;9.60;99.90
59999;DHT22;45859;51.378;6.736;2023-04-01T03:21:16;9.60;99.90
59999;DHT22;45859;51.378;6.736;2023-04-01T03:23:42;9.70;99.90
59999;DHT22;45859;51.378;6.736;2023-04-01T03:26:08;10.30;99.90
59999;DHT22;45859;51.378;6.736;2023-04-01T03:28:33;10.80;99.90
59999;DHT22;45859;51.378;6.736;2023-04-01T03:33:25;10.00;99.90
59999;DHT22;45859;51.378;6.736;2023-04-01T03:35:51;9.50;99.90
59999;DHT22;45859;51.378;6.736;2023-04-01T03:38:17;9.50;99.90
59999;DHT22;45859;51.378;6.736;2023-04-01T03:40:44;9.50;99.90
59999;DHT22;45859;51.378;6.736;2023-04-01T03:43:10;9.40;99.90
59999;DHT22;45859;51.378;6.736;2023-04-01T03:45:46;9.50;99.90
59999;DHT22;45859;51.378;6.736;2023-04-01T03:48:15;9.50;99.90
59999;DHT22;45859;51.378;6.736;2023-04-01T03:50:42;9.50;99.90
59999;DHT22;45859;51.378;6.736;2023-04-01T03:53:08;9.30;99.90
59999;DHT22;45859;51.378;6.736;2023-04-01T03:55:35;9.40;99.90
59999;DHT22;45859;51.378;6.736;2023-04-01T03:58:01;8.90;99.90
59999;DHT22;45859;51.378;6.736;2023-04-01T04:00:28;9.50;99.90
59999;DHT22;45859;51.378;6.736;2023-04-01T04:02:55;9.50;99.90
59999;DHT22;45859;51.378;6.736;2023-04-01T04:05:22;10.40;99.90
59999;DHT22;45859;51.378;6.736;2023-04-01T04:07:48;9.80;99.90
59999;DHT22;45859;51.378;6.736;2023-04-01T04:10:13;8.40;99.90
59999;DHT22;45859;51.378;6.736;2023-04-01T04:12:39;9.50;99.90
59999;DHT22;45859;51.378;6.736;2023-04-01T04:15:06;9.20;99.90
59999;DHT22;45859;51.378;6.736;2023-04-01T04:17:32;10.30;99.90
59999;DHT22;45859;51.378;6.736;2023-04-01T04:19:57;9.40;99.90
59999;DHT22;45859;51.378;6.736;2023-04-01T04:22:23;9.50;99.90
59999;DHT22;45859;51.378;6.736;2023-04-01T04:24:48;9.40;99.90
59999;DHT22;45859;51.378;6.736;2023-04-01T04:27:14;9.60;99.90
59999;DHT22;45859;51.378;6.736;2023-04-01T04:29:40;9.50;99.90
59999;DHT22;45859;51.378;6.736;2023-04-01T04:32:06;9.50;99.90
59999;DHT22;45859;51.378;6.736;2023-04-01T04:34:32;10.70;99.90
59999;DHT22;45859;51.378;6.736;2023-04-01T04:36:57;9.50;99.90
59999;DHT22;45859;51.378;6.736;2023-04-01T04:39:23;9.50;99.90
59999;DHT22;45859;51.378;6.736;2023-04-01T04:41:49;9.40;99.90
59999;DHT22;45859;51.378;6.736;2023-04-01T04:44:14;9.60;99.90
59999;DHT22;45859;51.378;6.736;2023-04-01T04:49:06;7.90;99.90
59999;DHT22;45859;51.378;6.736;2023-04-01T04:51:32;10.30;99.90
59999;DHT22;45859;51.378;6.736;2023-04-01T04:54:00;9.60;99.90
59999;DHT22;45859;51.378;6.736;2023-04-01T04:56:26;10.70;99.90
59999;DHT22;45859;51.378;6.736;2023-04-01T04:58:52;9.40;99.90
59999;DHT22;45859;51.378;6.736;2023-04-01T05:01:18;9.40;99.90
59999;DHT22;45859;51.378;6.736;2023-04-01T05:03:44;9.40;99.90
59999;DHT22;45859;51.378;6.736;2023-04-01T05:06:13;9.40;99.90
59999;DHT22;45859;51.378;6.736;2023-04-01T05:08:39;9.60;99.90
59999;DHT22;45859;51.378;6.736;2023-04-01T05:11:07;10.40;99.90
59999;DHT22;45859;51.378;6.736;2023-04-01T05:13:36;8.20;99.90
59999;DHT22;45859;51.378;6.736;2023-04-01T05:16:01;9.40;99.90
59999;DHT22;45859;51.378;6.736;2023-04-01T05:20:54;10.60;99.90
59999;DHT22;45859;51.378;6.736;2023-04-01T05:23:21;9.40;99.90
59999;DHT22;45859;51.378;6.736;2023-04-01T05:25:48;9.40;99.90
59999;DHT22;45859;51.378;6.736;2023-04-01T05:28:15;9.40;99.90
59999;DHT22;45859;51.378;6.736;2023-04-01T05:30:42;9.90;99.90
59999;DHT22;45859;51.378;6.736;2023-04-01T05:33:09;10.00;99.90
59999;DHT22;45859;51.378;6.736;2023-04-01T05:35:36;9.40;99.90
59999;DHT22;45859;51.378;6.736;2023-04-01T05:38:02;10.40;99.90
59999;DHT22;45859;51.378;6.736;2023-04-01T05:40:28;9.40;99.90
59999;DHT22;45859;51.378;6.736;2023-04-01T05:42:54;9.40;99.90
59999;DHT22;45859;51.378;6.736;2023-04-01T05:45:20;10.00;99.90
59999;DHT22;45859;51.378;6.736;2023-04-01T05:47:46;9.40;99.90
59999;DHT22;45859;51.378;6.736;2023-04-01T05:50:11;9.40;99.90
59999;DHT22;45859;51.378;6.736;2023-04-01T05:52:38;9.40;99.90
59999;DHT22;45859;51.378;6.736;2023-04-01T05:55:04;9.40;99.90
59999;DHT22;45859;51.378;6.736;2023-04-01T05:57:30;9.60;99.90
59999;DHT22;45859;51.378;6.736;2023-04-01T05:59:56;10.40;99.90
59999;DHT22;45859;51.378;6.736;2023-04-01T06:02:21;8.30;99.90
59999;DHT22;45859;51.378;6.736;2023-04-01T06:04:47;9.40;99.90
59999;DHT22;45859;51.378;6.736;2023-04-01T06:07:17;10.10;99.90
59999;DHT22;45859;51.378;6.736;2023-04-01T06:09:44;9.50;99.90
59999;DHT22;45859;51.378;6.736;2023-04-01T06:17:43;9.50;99.90
59999;DHT22;45859;51.378;6.736;2023-04-01T06:25:35;9.00;99.90
59999;DHT22;45859;51.378;6.736;2023-04-01T06:42:18;9.50;99.90
59999;DHT22;45859;51.378;6.736;2023-04-01T06:53:21;9.70;99.90
59999;DHT22;45859;51.378;6.736;2023-04-01T06:56:02;9.60;99.90
59999;DHT22;45859;51.378;6.736;2023-04-01T06:58:36;9.20;99.90
59999;DHT22;45859;51.378;6.736;2023-04-01T07:01:22;9.60;99.90
59999;DHT22;45859;51.378;6.736;2023-04-01T07:04:26;9.60;99.90
59999;DHT22;45859;51.378;6.736;2023-04-01T07:07:17;9.70;99.90
59999;DHT22;45859;51.378;6.736;2023-04-01T07:09:43;9.60;99.90
59999;DHT22;45859;51.378;6.736;2023-04-01T07:12:19;9.70;99.90
59999;DHT22;45859;51.378;6.736;2023-04-01T07:14:48;9.70;99.90
59999;DHT22;45859;51.378;6.736;2023-04-01T07:17:23;9.70;99.90
59999;DHT22;45859;51.378;6.736;2023-04-01T07:19:58;10.10;99.90
59999;DHT22;45859;51.378;6.736;2023-04-01T07:22:38;9.80;99.90
59999;DHT22;45859;51.378;6.736;2023-04-01T07:25:15;9.80;99.90
59999;DHT22;45859;51.378;6.736;2023-04-01T07:27:42;9.70;99.90
59999;DHT22;45859;51.378;6.736;2023-04-01T07:30:17;9.80;99.90
59999;DHT22;45859;51.378;6.736;2023-04-01T07:33:11;9.70;99.90
59999;DHT22;45859;51.378;6.736;2023-04-01T07:35:49;9.70;99.90
59999;DHT22;45859;51.378;6.736;2023-04-01T07:38:31;9.80;99.90
59999;DHT22;45859;51.378;6.736;2023-04-01T07:43:49;9.30;99.90
59999;DHT22;45859;51.378;6.736;2023-04-01T07:46:25;9.70;99.90
59999;DHT22;45859;51.378;6.736;2023-04-01T07:49:16;9.80;99.90
59999;DHT22;45859;51.378;6.736;2023-04-01T07:52:01;9.80;99.90
59999;DHT22;45859;51.378;6.736;2023-04-01T07:57:05;9.70;99.90
59999;DHT22;45859;51.378;6.736;2023-04-01T08:05:26;9.80;99.90
59999;DHT22;45859;51.378;6.736;2023-04-01T08:16:26;9.90;99.90
59999;DHT22;45859;51.378;6.736;2023-04-01T08:21:35;9.90;99.90
59999;DHT22;45859;51.378;6.736;2023-04-01T08:24:16;10.00;99.90
59999;DHT22;45859;51.378;6.736;2023-04-01T08:26:46;10.00;99.90
59999;DHT22;45859;51.378;6.736;2023-04-01T08:29:18;10.10;99.90
59999;DHT22;45859;51.378;6.736;2023-04-01T08:31:54;10.00;99.90
59999;DHT22;45859;51.378;6.736;2023-04-01T08:34:38;10.00;99.90
59999;DHT22;45859;51.378;6.736;2023-04-01T08:37:12;10.00;99.90
59999;DHT22;45859;51.378;6.736;2023-04-01T08:39:54;10.00;99.90
59999;DHT22;45859;51.378;6.736;2023-04-01T08:42:31;10.00;99.90
59999;DHT22;45859;51.378;6.736;2023-04-01T08:56:36;10.10;99.90
59999;DHT22;45859;51.378;6.736;2023-04-01T09:02:38;9.80;99.90
59999;DHT22;45859;51.378;6.736;2023-04-01T09:19:43;10.30;99.90
59999;DHT22;45859;51.378;6.736;2023-04-01T09:27:04;10.30;99.90
59999;DHT22;45859;51.378;6.736;2023-04-01T09:32:43;10.40;99.90
59999;DHT22;45859;51.378;6.736;2023-04-01T09:35:46;11.10;99.90
59999;DHT22;45859;51.378;6.736;2023-04-01T09:38:36;10.60;99.90
59999;DHT22;45859;51.378;6.736;2023-04-01T09:41:30;10.40;99.90
59999;DHT22;45859;51.378;6.736;2023-04-01T09:44:03;10.50;99.90
59999;DHT22;45859;51.378;6.736;2023-04-01T10:02:48;11.00;99.90
59999;DHT22;45859;51.378;6.736;2023-04-01T10:05:48;10.60;99.90
59999;DHT22;45859;51.378;6.736;2023-04-01T10:14:24;10.40;99.90
59999;DHT22;45859;51.378;6.736;2023-04-01T10:47:59;10.50;99.90
59999;DHT22;45859;51.378;6.736;2023-04-01T11:16:03;10.40;99.90
59999;DHT22;45859;51.378;6.736;2023-04-01T11:21:28;10.40;99.90
59999;DHT22;45859;51.378;6.736;2023-04-01T11:24:18;10.40;99.90
59999;DHT22;45859;51.378;6.736;2023-04-01T11:36:00;10.50;99.90
59999;DHT22;45859;51.378;6.736;2023-04-01T11:38:56;10.50;99.90
59999;DHT22;45859;51.378;6.736;2023-04-01T11:44:17;10.70;99.90
59999;DHT22;45859;51.378;6.736;2023-04-01T11:52:34;10.70;99.90
59999;DHT22;45859;51.378;6.736;2023-04-01T11:55:15;10.60;99.90
59999;DHT22;45859;51.378;6.736;2023-04-01T12:07:15;10.70;99.90
59999;DHT22;45859;51.378;6.736;2023-04-01T12:10:12;10.70;99.90
59999;DHT22;45859;51.378;6.736;2023-04-01T12:15:36;10.70;99.90
59999;DHT22;45859;51.378;6.736;2023-04-01T12:21:17;10.80;99.90
59999;DHT22;45859;51.378;6.736;2023-04-01T12:26:31;11.00;99.90
59999;DHT22;45859;51.378;6.736;2023-04-01T12:34:29;10.30;99.90
59999;DHT22;45859;51.378;6.736;2023-04-01T12:37:19;11.00;99.90
59999;DHT22;45859;51.378;6.736;2023-04-01T12:45:49;11.10;99.90
59999;DHT22;45859;51.378;6.736;2023-04-01T12:48:40;11.20;99.90
59999;DHT22;45859;51.378;6.736;2023-04-01T12:53:41;11.20;99.90
59999;DHT22;45859;51.378;6.736;2023-04-01T12:56:21;11.20;99.90
59999;DHT22;45859;51.378;6.736;2023-04-01T12:59:08;11.10;99.90
59999;DHT22;45859;51.378;6.736;2023-04-01T13:09:14;11.00;99.90
59999;DHT22;45859;51.378;6.736;2023-04-01T13:19:58;11.30;99.90
59999;DHT22;45859;51.378;6.736;2023-04-01T13:22:56;10.70;99.90
59999;DHT22;45859;51.378;6.736;2023-04-01T13:31:14;10.60;99.90
59999;DHT22;45859;51.378;6.736;2023-04-01T13:34:04;11.00;99.90
59999;DHT22;45859;51.378;6.736;2023-04-01T13:42:28;10.70;99.90
59999;DHT22;45859;51.378;6.736;2023-04-01T13:45:17;10.70;99.90
59999;DHT22;45859;51.378;6.736;2023-04-01T14:12:31;10.70;99.90
59999;DHT22;45859;51.378;6.736;2023-04-01T14:20:28;10.60;99.90
59999;DHT22;45859;51.378;6.736;2023-04-01T14:23:28;10.90;99.90
59999;DHT22;45859;51.378;6.736;2023-04-01T14:40:24;10.50;99.90
59999;DHT22;45859;51.378;6.736;2023-04-01T14:43:13;10.50;99.90
59999;DHT22;45859;51.378;6.736;2023-04-01T14:48:48;10.50;99.90
59999;DHT22;45859;51.378;6.736;2023-04-01T14:51:35;10.50;99.90
59999;DHT22;45859;51.378;6.736;2023-04-01T14:59:27;10.50;99.90
59999;DHT22;45859;51.378;6.736;2023-04-01T15:07:35;10.50;99.90
59999;DHT22;45859;51.378;6.736;2023-04-01T15:18:19;10.40;99.90
59999;DHT22;45859;51.378;6.736;2023-04-01T15:26:17;10.40;99.90
59999;DHT22;45859;51.378;6.736;2023-04-01T15:31:39;10.40;99.90
59999;DHT22;45859;51.378;6.736;2023-04-01T15:37:11;10.40;99.90
59999;DHT22;45859;51.378;6.736;2023-04-01T15:48:18;10.40;99.90
59999;DHT22;45859;51.378;6.736;2023-04-01T15:51:11;10.40;99.90
59999;DHT22;45859;51.378;6.736;2023-04-01T15:57:02;10.40;99.90
59999;DHT22;45859;51.378;6.736;2023-04-01T16:02:35;10.40;99.90
59999;DHT22;45859;51.378;6.736;2023-04-01T16:16:14;10.50;99.90
59999;DHT22;45859;51.378;6.736;2023-04-01T16:21:33;10.60;99.90
59999;DHT22;45859;51.378;6.736;2023-04-01T16:27:07;10.60;99.90
59999;DHT22;45859;51.378;6.736;2023-04-01T16:30:22;10.50;99.90
59999;DHT22;45859;51.378;6.736;2023-04-01T16:38:02;10.50;99.90
59999;DHT22;45859;51.378;6.736;2023-04-01T16:40:44;11.20;99.90
59999;DHT22;45859;51.378;6.736;2023-04-01T16:51:15;10.40;99.90
59999;DHT22;45859;51.378;6.736;2023-04-01T16:53:50;11.10;99.90
59999;DHT22;45859;51.378;6.736;2023-04-01T16:56:24;10.40;99.90
59999;DHT22;45859;51.378;6.736;2023-04-01T16:59:03;8.00;99.90
59999;DHT22;45859;51.378;6.736;2023-04-01T17:01:55;10.30;99.90
59999;DHT22;45859;51.378;6.736;2023-04-01T17:04:37;10.20;99.90
59999;DHT22;45859;51.378;6.736;2023-04-01T17:18:46;10.30;99.90
59999;DHT22;45859;51.378;6.736;2023-04-01T17:27:16;10.20;99.90
59999;DHT22;45859;51.378;6.736;2023-04-01T17:30:06;10.20;99.90
59999;DHT22;45859;51.378;6.736;2023-04-01T17:33:08;10.20;99.90
59999;DHT22;45859;51.378;6.736;2023-04-01T17:41:08;10.20;99.90
59999;DHT22;45859;51.378;6.736;2023-04-01T17:51:54;10.10;99.90
59999;DHT22;45859;51.378;6.736;2023-04-01T17:54:47;10.40;99.90
59999;DHT22;45859;51.378;6.736;2023-04-01T18:00:02;10.20;99.90
59999;DHT22;45859;51.378;6.736;2023-04-01T18:07:45;10.10;99.90
59999;DHT22;45859;51.378;6.736;2023-04-01T18:10:38;10.00;99.90
59999;DHT22;45859;51.378;6.736;2023-04-01T18:18:37;10.00;99.90
59999;DHT22;45859;51.378;6.736;2023-04-01T18:24:02;10.00;99.90
59999;DHT22;45859;51.378;6.736;2023-04-01T18:26:33;10.00;99.90
59999;DHT22;45859;51.378;6.736;2023-04-01T18:35:14;10.00;99.90
59999;DHT22;45859;51.378;6.736;2023-04-01T18:37:47;10.00;99.90
59999;DHT22;45859;51.378;6.736;2023-04-01T18:43:27;10.00;99.90
59999;DHT22;45859;51.378;6.736;2023-04-01T18:46:01;10.00;99.90
59999;DHT22;45859;51.378;6.736;2023-04-01T18:51:58;10.00;99.90
59999;DHT22;45859;51.378;6.736;2023-04-01T18:54:33;10.00;99.90
59999;DHT22;45859;51.378;6.736;2023-04-01T18:57:12;10.00;99.90
59999;DHT22;45859;51.378;6.736;2023-04-01T19:00:02;10.00;99.90
59999;DHT22;45859;51.378;6.736;2023-04-01T19:02:36;9.80;99.90
59999;DHT22;45859;51.378;6.736;2023-04-01T19:05:11;9.90;99.90
59999;DHT22;45859;51.378;6.736;2023-04-01T19:07:47;10.00;99.90
59999;DHT22;45859;51.378;6.736;2023-04-01T19:15:28;9.90;99.90
59999;DHT22;45859;51.378;6.736;2023-04-01T19:18:19;9.90;99.90
59999;DHT22;45859;51.378;6.736;2023-04-01T19:20:57;9.90;99.90
59999;DHT22;45859;51.378;6.736;2023-04-01T19:26:45;9.90;99.90
59999;DHT22;45859;51.378;6.736;2023-04-01T19:32:17;9.80;99.90
59999;DHT22;45859;51.378;6.736;2023-04-01T19:44:11;9.90;99.90
59999;DHT22;45859;51.378;6.736;2023-04-01T19:46:49;9.90;99.90
59999;DHT22;45859;51.378;6.736;2023-04-01T19:51:55;9.90;99.90
59999;DHT22;45859;51.378;6.736;2023-04-01T19:54:36;10.10;99.90
59999;DHT22;45859;51.378;6.736;2023-04-01T19:57:31;10.00;99.90
59999;DHT22;45859;51.378;6.736;2023-04-01T20:05:27;9.90;99.90
59999;DHT22;45859;51.378;6.736;2023-04-01T20:10:48;10.00;99.90
59999;DHT22;45859;51.378;6.736;2023-04-01T20:16:04;10.60;99.90
59999;DHT22;45859;51.378;6.736;2023-04-01T20:18:57;9.90;99.90
59999;DHT22;45859;51.378;6.736;2023-04-01T20:21:42;10.00;99.90
59999;DHT22;45859;51.378;6.736;2023-04-01T20:24:16;11.30;99.90
59999;DHT22;45859;51.378;6.736;2023-04-01T20:27:04;9.80;99.90
59999;DHT22;45859;51.378;6.736;2023-04-01T20:37:47;9.60;99.90
59999;DHT22;45859;51.378;6.736;2023-04-01T20:48:41;9.50;99.90
59999;DHT22;45859;51.378;6.736;2023-04-01T20:51:23;9.50;99.90
59999;DHT22;45859;51.378;6.736;2023-04-01T21:11:18;8.80;99.90
59999;DHT22;45859;51.378;6.736;2023-04-01T21:17:08;9.10;99.90
59999;DHT22;45859;51.378;6.736;2023-04-01T21:36:25;9.10;99.90
59999;DHT22;45859;51.378;6.736;2023-04-01T21:41:57;7.30;99.90
59999;DHT22;45859;51.378;6.736;2023-04-01T22:02:36;8.40;99.90
59999;DHT22;45859;51.378;6.736;2023-04-01T22:10:48;8.40;99.90
59999;DHT22;45859;51.378;6.736;2023-04-01T22:13:26;8.50;99.90
59999;DHT22;45859;51.378;6.736;2023-04-01T22:18:33;8.40;99.90
59999;DHT22;45859;51.378;6.736;2023-04-01T22:24:00;8.30;99.90
59999;DHT22;45859;51.378;6.736;2023-04-01T22:26:59;8.10;99.90
59999;DHT22;45859;51.378;6.736;2023-04-01T22:32:30;8.10;99.90
59999;DHT22;45859;51.378;6.736;2023-04-01T22:40:40;8.20;99.90
59999;DHT22;45859;51.378;6.736;2023-04-01T22:43:13;8.10;99.90
59999;DHT22;45859;51.378;6.736;2023-04-01T22:46:08;6.80;99.90
59999;DHT22;45859;51.378;6.736;2023-04-01T22:51:18;8.00;99.90
59999;DHT22;45859;51.378;6.736;2023-04-01T22:54:13;8.80;99.90
59999;DHT22;45859;51.378;6.736;2023-04-01T22:57:02;7.80;99.90
59999;DHT22;45859;51.378;6.736;2023-04-01T22:59:40;7.70;99.90
59999;DHT22;45859;51.378;6.736;2023-04-01T23:02:25;6.40;99.90
59999;DHT22;45859;51.378;6.736;2023-04-01T23:04:56;7.70;99.90
59999;DHT22;45859;51.378;6.736;2023-04-01T23:10:44;8.00;99.90
59999;DHT22;45859;51.378;6.736;2023-04-01T23:13:24;7.70;99.90
59999;DHT22;45859;51.378;6.736;2023-04-01T23:15:53;7.50;99.90
59999;DHT22;45859;51.378;6.736;2023-04-01T23:29:01;7.70;99.90
59999;DHT22;45859;51.378;6.736;2023-04-01T23:31:38;7.10;99.90
59999;DHT22;45859;51.378;6.736;2023-04-01T23:36:51;7.80;99.90
59999;DHT22;45859;51.378;6.736;2023-04-01T23:39:25;6.80;99.90
59999;DHT22;45859;51.378;6.736;2023-04-01T23:41:54;7.30;99.90
59999;DHT22;45859;51.378;6.736;2023-04-01T23:44:21;7.70;99.90
59999;DHT22;45859;51.378;6.736;2023-04-01T23:46:51;7.10;99.90
59999;DHT22;45859;51.378;6.736;2023-04-01T23:49:30;7.40;99.90
59999;DHT22;45859;51.378;6.736;2023-04-01T23:52:02;7.30;99.90
59999;DHT22;45859;51.378;6.736;2023-04-01T23:54:29;7.40;99.90
59999;DHT22;45859;51.378;6.736;2023-04-01T23:56:57;7.30;99.90
59999;DHT22;45859;51.378;6.736;2023-04-01T23:59:43;8.80;99.90
